Time;durP1;ratioP1;P1;durP2;ratioP2;P2;SDS_P1;SDS_P2;PMS_P1;PMS_P2;Temp;Humidity;BMP_temperature;BMP_pressure;BME280_temperature;BME280_humidity;BME280_pressure;Samples;Min_cycle;Max_cycle;Signal;HPM_P1;HPM_P2
2022/03/10 00:00:39;;;;;;;11.50;5.70;;;;;;;-2.20;69.16;101293.85;1740373;82;21024;-61
2022/03/10 00:03:09;;;;;;;13.78;6.10;;;;;;;-2.25;68.78;101291.45;1740143;82;21443;-60
2022/03/10 00:05:40;;;;;;;10.72;5.12;;;;;;;-2.26;68.69;101295.09;1740110;82;21075;-60
2022/03/10 00:08:10;;;;;;;10.08;5.92;;;;;;;-2.25;68.66;101295.48;1719953;82;21078;-61
2022/03/10 00:10:41;;;;;;;13.30;5.92;;;;;;;-2.28;68.70;101304.20;1740090;81;21055;-61
2022/03/10 00:13:10;;;;;;;9.90;5.47;;;;;;;-2.31;68.85;101303.91;1686421;85;21074;-61
2022/03/10 00:15:43;;;;;;;10.75;5.45;;;;;;;-2.30;68.91;101306.97;1686369;85;21035;-60
2022/03/10 00:18:12;;;;;;;10.30;5.45;;;;;;;-2.31;68.72;101316.46;1686663;85;21042;-61
2022/03/10 00:20:43;;;;;;;10.60;5.60;;;;;;;-2.34;68.45;101313.48;1686543;85;21039;-61
2022/03/10 00:23:12;;;;;;;9.73;4.83;;;;;;;-2.35;68.12;101316.27;1686369;85;21063;-62
2022/03/10 00:25:42;;;;;;;11.85;6.05;;;;;;;-2.43;67.02;101325.25;1686381;85;21075;-61
2022/03/10 00:28:11;;;;;;;9.33;4.58;;;;;;;-2.48;66.85;101324.19;1686605;85;21106;-61
2022/03/10 00:30:41;;;;;;;9.48;4.92;;;;;;;-2.47;66.25;101333.10;1686436;85;21073;-60
2022/03/10 00:33:10;;;;;;;9.98;4.78;;;;;;;-2.54;65.55;101331.26;1686477;85;21082;-61
2022/03/10 00:35:40;;;;;;;13.18;4.60;;;;;;;-2.60;65.40;101327.12;1686630;85;21039;-62
2022/03/10 00:38:09;;;;;;;9.15;4.58;;;;;;;-2.61;65.34;101332.55;1721980;82;21031;-60
2022/03/10 00:40:38;;;;;;;10.32;4.75;;;;;;;-2.66;64.94;101340.00;1740211;82;21063;-61
2022/03/10 00:43:12;;;;;;;9.98;4.92;;;;;;;-2.70;64.68;101322.36;1740191;82;21412;-61
2022/03/10 00:45:43;;;;;;;9.50;5.33;;;;;;;-2.70;64.83;101321.02;1740305;82;21047;-60
2022/03/10 00:48:12;;;;;;;9.43;4.67;;;;;;;-2.66;65.04;101325.25;1740168;82;21031;-62
2022/03/10 00:50:41;;;;;;;10.45;4.85;;;;;;;-2.67;65.12;101330.23;1740542;82;21059;-61
2022/03/10 00:53:11;;;;;;;8.90;4.22;;;;;;;-2.70;65.15;101337.98;1740364;82;21035;-61
2022/03/10 00:55:42;;;;;;;9.08;4.67;;;;;;;-2.76;64.45;101336.13;1740119;81;21039;-62
2022/03/10 00:58:11;;;;;;;8.80;4.45;;;;;;;-2.82;64.58;101334.67;1740265;82;21035;-62
2022/03/10 01:00:41;;;;;;;8.73;4.37;;;;;;;-2.84;64.59;101343.77;1740130;82;21062;-61
2022/03/10 01:03:12;;;;;;;10.95;4.75;;;;;;;-2.89;63.62;101340.88;1740367;82;21044;-62
2022/03/10 01:05:41;;;;;;;8.88;4.72;;;;;;;-2.95;63.28;101345.25;1740163;82;21040;-61
2022/03/10 01:08:13;;;;;;;9.00;4.25;;;;;;;-2.97;63.11;101340.45;1740207;82;21043;-61
2022/03/10 01:10:43;;;;;;;8.63;3.95;;;;;;;-2.99;62.87;101343.69;1740117;82;21445;-60
2022/03/10 01:13:18;;;;;;;9.73;4.70;;;;;;;-3.01;62.47;101351.44;1740194;82;21015;-61
2022/03/10 01:15:48;;;;;;;7.60;4.30;;;;;;;-3.06;61.95;101349.02;1740185;81;21063;-61
2022/03/10 01:18:18;;;;;;;8.93;4.75;;;;;;;-3.09;62.15;101351.87;1740190;82;21014;-60
2022/03/10 01:20:48;;;;;;;8.60;4.40;;;;;;;-3.12;61.98;101354.73;1740173;81;21040;-62
2022/03/10 01:23:18;;;;;;;10.88;4.85;;;;;;;-3.17;61.79;101375.57;1740189;82;21087;-61
2022/03/10 01:25:49;;;;;;;9.68;4.50;;;;;;;-3.19;61.84;101372.11;1740164;82;21071;-61
2022/03/10 01:28:18;;;;;;;10.08;4.65;;;;;;;-3.20;61.89;101371.24;1740429;82;21036;-60
2022/03/10 01:30:47;;;;;;;8.63;4.60;;;;;;;-3.14;61.93;101375.39;1740346;82;21039;-60
2022/03/10 01:33:17;;;;;;;10.05;4.50;;;;;;;-3.13;61.73;101370.90;1686353;85;21031;-61
2022/03/10 01:35:48;;;;;;;10.00;4.80;;;;;;;-3.15;61.82;101368.30;1686476;84;21070;-60
2022/03/10 01:38:18;;;;;;;8.48;4.28;;;;;;;-3.20;62.04;101389.14;1686405;85;21014;-61
2022/03/10 01:40:47;;;;;;;7.87;4.00;;;;;;;-3.32;61.81;101385.77;1685046;84;22238;-60
2022/03/10 01:43:16;;;;;;;9.25;4.42;;;;;;;-3.32;61.81;101385.77;1684452;85;21078;-61
2022/03/10 01:45:46;;;;;;;7.60;3.83;;;;;;;-3.33;61.94;101397.44;1684087;85;21042;-60
2022/03/10 01:48:14;;;;;;;8.50;3.98;;;;;;;-3.49;59.42;101413.97;1684188;85;21062;-62
2022/03/10 01:50:44;;;;;;;6.53;3.40;;;;;;;-3.49;59.42;101413.97;1684131;85;21074;-61
2022/03/10 01:53:14;;;;;;;6.22;3.15;;;;;;;-3.58;58.56;101414.85;1684416;85;21095;-61
2022/03/10 01:55:46;;;;;;;6.83;3.27;;;;;;;-3.60;58.39;101424.78;1661937;85;21007;-62
2022/03/10 01:58:16;;;;;;;7.22;3.15;;;;;;;-3.68;58.43;101422.98;1719114;82;21047;-61
2022/03/10 02:00:45;;;;;;;7.00;3.80;;;;;;;-3.66;58.52;101421.09;1738364;82;21062;-60
2022/03/10 02:03:15;;;;;;;8.50;3.80;;;;;;;-3.70;57.79;101420.87;1738053;82;21055;-61
2022/03/10 02:05:46;;;;;;;8.65;3.58;;;;;;;-3.75;57.42;101426.94;1738054;82;21095;-61
2022/03/10 02:11:05;;;;;;;5.45;3.05;;;;;;;-3.80;57.19;101431.67;1738366;82;21027;-61
2022/03/10 02:13:35;;;;;;;6.90;3.10;;;;;;;-3.84;56.32;101442.16;1717914;82;21310;-61
2022/03/10 02:18:56;;;;;;;6.50;3.00;;;;;;;-3.96;56.78;101450.32;1738064;81;20999;-61
2022/03/10 02:21:25;;;;;;;6.62;3.02;;;;;;;-4.03;56.85;101450.24;1738114;82;21038;-61
2022/03/10 02:23:54;;;;;;;6.42;2.80;;;;;;;-4.05;56.84;101453.47;1738241;82;21032;-61
2022/03/10 02:26:23;;;;;;;6.47;3.10;;;;;;;-4.11;56.81;101464.96;1738298;82;21056;-60
2022/03/10 02:28:52;;;;;;;6.00;2.90;;;;;;;-4.21;56.93;101466.77;1738407;82;21043;-61
2022/03/10 02:31:22;;;;;;;5.50;2.80;;;;;;;-4.28;57.31;101475.17;1738008;82;21035;-61
2022/03/10 02:33:52;;;;;;;6.83;2.75;;;;;;;-4.32;57.44;101471.79;1737912;82;21106;-62
2022/03/10 02:36:22;;;;;;;6.12;2.67;;;;;;;-4.33;57.53;101471.39;1738371;82;21039;-61
2022/03/10 02:41:22;;;;;;;5.50;2.12;;;;;;;-4.40;57.61;101482.00;1739436;82;21471;-61
2022/03/10 02:43:52;;;;;;;6.33;2.20;;;;;;;-4.51;57.37;101481.67;1740167;82;21082;-61
2022/03/10 02:46:24;;;;;;;4.58;2.15;;;;;;;-4.51;57.37;101481.67;1740099;82;21091;-60
2022/03/10 02:48:53;;;;;;;7.60;2.62;;;;;;;-4.58;57.09;101492.23;1740163;82;21035;-62
2022/03/10 02:51:26;;;;;;;7.35;2.75;;;;;;;-4.60;57.22;101492.78;1740425;82;21091;-61
2022/03/10 02:53:55;;;;;;;4.72;2.15;;;;;;;-4.67;57.26;101506.05;1740091;82;21094;-61
2022/03/10 02:56:26;;;;;;;7.95;2.22;;;;;;;-4.67;57.26;101506.05;1740330;82;21031;-61
2022/03/10 02:58:55;;;;;;;4.58;2.25;;;;;;;-4.64;57.48;101509.44;1740519;82;21055;-61
2022/03/10 03:01:27;;;;;;;4.58;2.12;;;;;;;-4.66;57.50;101507.31;1740185;81;21082;-61
2022/03/10 03:03:56;;;;;;;4.70;2.65;;;;;;;-4.71;57.49;101509.81;1740199;82;21079;-61
2022/03/10 03:06:25;;;;;;;4.92;2.40;;;;;;;-4.78;57.78;101517.26;1740134;82;21529;-61
2022/03/10 03:08:55;;;;;;;3.90;2.22;;;;;;;-4.79;57.71;101523.08;1740141;82;21459;-61
2022/03/10 03:11:24;;;;;;;7.55;2.40;;;;;;;-4.83;57.91;101528.16;1740227;82;21099;-62
2022/03/10 03:13:53;;;;;;;6.00;2.58;;;;;;;-4.89;58.05;101519.57;1740029;82;21308;-61
2022/03/10 03:16:24;;;;;;;7.12;2.27;;;;;;;-4.92;58.25;101527.73;1740747;82;21103;-60
2022/03/10 03:18:54;;;;;;;7.30;2.83;;;;;;;-5.04;58.62;101533.64;1740246;82;21499;-61
2022/03/10 03:21:24;;;;;;;7.40;2.98;;;;;;;-5.04;58.62;101533.64;1740228;82;21008;-60
2022/03/10 03:23:56;;;;;;;6.50;2.90;;;;;;;-5.05;58.83;101539.45;1740181;82;21051;-61
2022/03/10 03:26:25;;;;;;;9.23;3.12;;;;;;;-5.03;59.08;101544.27;1740123;81;21095;-61
2022/03/10 03:28:54;;;;;;;7.92;2.83;;;;;;;-4.99;59.07;101547.19;1740536;82;21079;-60
2022/03/10 03:31:24;;;;;;;6.40;2.85;;;;;;;-5.03;58.96;101550.08;1740447;82;21122;-61
2022/03/10 03:33:55;;;;;;;7.72;2.92;;;;;;;-5.10;58.94;101552.16;1740279;82;21066;-60
2022/03/10 03:36:24;;;;;;;9.83;3.37;;;;;;;-5.14;59.15;101561.25;1740163;82;21090;-61
2022/03/10 03:38:53;;;;;;;8.23;3.30;;;;;;;-5.15;59.43;101572.41;1740253;82;21051;-61
2022/03/10 03:41:22;;;;;;;6.35;2.95;;;;;;;-5.15;59.46;101573.74;1739050;82;21039;-60
2022/03/10 03:43:52;;;;;;;5.83;2.75;;;;;;;-5.15;59.18;101574.21;1738223;82;21024;-61
2022/03/10 03:46:22;;;;;;;8.08;2.70;;;;;;;-5.15;59.26;101572.87;1738105;82;21087;-60
2022/03/10 03:48:53;;;;;;;7.22;3.50;;;;;;;-5.17;59.30;101571.61;1738125;81;21092;-61
2022/03/10 03:51:22;;;;;;;7.62;3.25;;;;;;;-5.23;59.24;101579.86;1738351;82;21051;-61
2022/03/10 03:53:51;;;;;;;7.58;3.40;;;;;;;-5.26;59.57;101578.67;1738227;82;21079;-61
2022/03/10 03:56:20;;;;;;;6.58;3.22;;;;;;;-5.24;59.87;101580.80;1738122;82;21052;-61
2022/03/10 03:58:49;;;;;;;7.55;2.87;;;;;;;-5.27;59.86;101584.94;1738334;82;21075;-61
2022/03/10 04:01:19;;;;;;;5.87;2.80;;;;;;;-5.26;60.00;101583.14;1738072;82;21039;-61
2022/03/10 04:03:48;;;;;;;5.55;3.20;;;;;;;-5.30;59.96;101587.75;1737966;82;21455;-61
2022/03/10 04:06:17;;;;;;;5.15;2.90;;;;;;;-5.32;60.19;101587.42;1738021;82;21443;-61
2022/03/10 04:08:47;;;;;;;6.65;3.37;;;;;;;-5.32;60.34;101592.77;1738409;82;21047;-60
2022/03/10 04:11:17;;;;;;;7.22;3.40;;;;;;;-5.32;60.42;101582.08;1738189;82;21035;-60
2022/03/10 04:13:49;;;;;;;7.80;3.30;;;;;;;-5.33;60.53;101585.69;1656615;85;21103;-61
2022/03/10 04:16:20;;;;;;;7.45;3.17;;;;;;;-5.30;60.75;101593.56;1656771;85;21529;-61
2022/03/10 04:18:50;;;;;;;11.45;3.83;;;;;;;-5.27;61.15;101602.77;1656860;86;21054;-59
2022/03/10 04:21:21;;;;;;;7.67;3.12;;;;;;;-5.26;61.15;101600.50;1656648;86;21070;-60
2022/03/10 04:23:51;;;;;;;7.10;3.08;;;;;;;-5.26;61.09;101593.83;1656852;85;21062;-61
2022/03/10 04:26:23;;;;;;;9.80;3.55;;;;;;;-5.33;61.04;101601.71;1656587;86;21078;-61
2022/03/10 04:28:53;;;;;;;6.70;3.37;;;;;;;-5.40;61.10;101602.45;1603925;89;21097;-60
2022/03/10 04:31:23;;;;;;;8.85;3.60;;;;;;;-5.42;61.20;101613.20;1624967;85;21015;-60
2022/03/10 04:34:03;;;;;;;10.08;3.50;;;;;;;-5.42;61.07;101606.52;1684183;85;21027;-61
2022/03/10 04:36:39;;;;;;;9.05;3.33;;;;;;;-5.41;61.18;101616.73;1684201;85;21047;-61
2022/03/10 04:39:08;;;;;;;8.50;3.58;;;;;;;-5.39;61.02;101615.33;1684215;85;21078;-60
2022/03/10 04:41:38;;;;;;;8.70;3.52;;;;;;;-5.35;60.90;101623.61;1683941;85;21103;-60
2022/03/10 04:44:07;;;;;;;7.67;3.50;;;;;;;-5.34;61.05;101622.67;1683938;85;21015;-61
2022/03/10 04:46:37;;;;;;;11.45;3.62;;;;;;;-5.32;60.69;101626.15;1700619;82;21483;-61
2022/03/10 04:49:06;;;;;;;7.03;3.35;;;;;;;-5.32;60.72;101630.16;1737934;82;21479;-61
2022/03/10 04:51:35;;;;;;;8.13;3.70;;;;;;;-5.32;60.72;101635.50;1737900;82;21043;-59
2022/03/10 04:54:05;;;;;;;8.80;4.00;;;;;;;-5.31;60.85;101629.22;1737786;81;21040;-61
2022/03/10 04:56:34;;;;;;;8.83;3.37;;;;;;;-5.30;60.83;101641.17;1738255;82;21075;-60
2022/03/10 04:59:03;;;;;;;7.60;3.05;;;;;;;-5.28;60.89;101638.44;1738030;82;21533;-60
2022/03/10 05:01:32;;;;;;;6.30;3.22;;;;;;;-5.29;60.79;101644.25;1737697;82;21181;-60
2022/03/10 05:04:02;;;;;;;6.85;3.17;;;;;;;-5.28;60.84;101643.78;1737844;82;21035;-62
2022/03/10 05:06:32;;;;;;;6.97;3.37;;;;;;;-5.25;60.81;101651.66;1737677;82;21094;-61
2022/03/10 05:09:02;;;;;;;8.73;3.80;;;;;;;-5.22;60.75;101658.20;1737745;82;21007;-61
2022/03/10 05:11:33;;;;;;;7.50;3.37;;;;;;;-5.21;60.75;101655.94;1737955;82;21059;-60
2022/03/10 05:14:04;;;;;;;6.72;2.90;;;;;;;-5.17;60.78;101661.11;1737804;82;21071;-61
2022/03/10 05:16:36;;;;;;;6.70;2.85;;;;;;;-5.14;60.25;101664.12;1737827;82;21456;-61
2022/03/10 05:19:05;;;;;;;6.53;2.85;;;;;;;-5.16;60.05;101661.98;1737725;81;21039;-61
2022/03/10 05:21:36;;;;;;;8.63;3.62;;;;;;;-5.18;59.90;101662.52;1737607;82;21031;-62
2022/03/10 05:24:08;;;;;;;8.80;3.30;;;;;;;-5.23;60.05;101660.48;1738108;81;21102;-62
2022/03/10 05:26:39;;;;;;;7.50;3.17;;;;;;;-5.24;59.91;101666.75;1737782;82;21092;-62
2022/03/10 05:29:11;;;;;;;7.17;3.00;;;;;;;-5.26;59.92;101668.16;1738070;82;21004;-61
2022/03/10 05:31:40;;;;;;;8.48;3.17;;;;;;;-5.27;59.84;101673.56;1737760;82;21087;-61
2022/03/10 05:34:09;;;;;;;8.58;2.83;;;;;;;-5.30;59.92;101663.02;1737916;82;21071;-63
2022/03/10 05:36:41;;;;;;;7.40;3.40;;;;;;;-5.31;59.97;101678.64;1737980;82;21522;-61
2022/03/10 05:39:10;;;;;;;7.28;3.40;;;;;;;-5.30;60.09;101685.72;1737840;82;21118;-61
2022/03/10 05:41:42;;;;;;;6.25;3.17;;;;;;;-5.27;60.00;101685.58;1744872;81;21054;-61
2022/03/10 05:44:11;;;;;;;6.37;3.40;;;;;;;-5.27;59.96;101690.92;1753995;82;21455;-61
2022/03/10 05:46:40;;;;;;;8.03;3.30;;;;;;;-5.24;59.85;101685.45;1754248;82;21050;-61
2022/03/10 05:49:09;;;;;;;7.95;3.30;;;;;;;-5.24;59.67;101689.46;1754051;82;21075;-61
2022/03/10 05:51:39;;;;;;;6.75;3.30;;;;;;;-5.24;59.80;101682.78;1753814;82;21023;-63
2022/03/10 05:54:09;;;;;;;6.50;2.95;;;;;;;-5.22;59.70;101688.93;1754362;82;21043;-62
2022/03/10 05:56:38;;;;;;;7.42;3.20;;;;;;;-5.22;59.60;101697.81;1754169;82;21063;-61
2022/03/10 05:59:09;;;;;;;6.67;3.10;;;;;;;-5.21;59.41;101697.34;1754012;82;21066;-61
2022/03/10 06:01:39;;;;;;;10.13;3.70;;;;;;;-5.22;59.67;101694.27;1754048;82;21079;-61
2022/03/10 06:04:09;;;;;;;7.10;3.42;;;;;;;-5.24;59.46;101694.80;1754200;82;20999;-62
2022/03/10 06:06:43;;;;;;;6.95;3.12;;;;;;;-5.22;59.49;101695.61;1656655;86;21076;-62
2022/03/10 06:09:12;;;;;;;8.25;3.30;;;;;;;-5.21;59.26;101706.23;1656497;86;21055;-62
2022/03/10 06:11:40;;;;;;;7.40;3.05;;;;;;;-5.17;59.24;101702.52;1656726;86;21486;-62
2022/03/10 06:14:11;;;;;;;6.35;3.12;;;;;;;-5.13;58.71;101708.14;1656602;86;21058;-61
2022/03/10 06:16:41;;;;;;;7.37;3.50;;;;;;;-5.12;58.58;101717.02;1656584;86;21086;-61
2022/03/10 06:19:12;;;;;;;6.50;2.83;;;;;;;-5.06;58.48;101711.41;1656654;86;21071;-62
2022/03/10 06:21:42;;;;;;;9.70;3.58;;;;;;;-5.00;58.54;101704.94;1656530;86;21043;-61
2022/03/10 06:24:11;;;;;;;7.37;3.15;;;;;;;-4.99;58.64;101698.66;1678787;82;21122;-61
2022/03/10 06:26:43;;;;;;;6.05;3.10;;;;;;;-4.99;58.64;101698.66;1754277;82;21003;-62
2022/03/10 06:29:16;;;;;;;7.28;3.22;;;;;;;-4.96;58.68;101710.08;1753990;82;21039;-61
2022/03/10 06:31:45;;;;;;;7.45;3.05;;;;;;;-4.94;59.07;101708.20;1753978;80;21023;-61
2022/03/10 06:34:14;;;;;;;6.47;3.15;;;;;;;-4.90;58.76;101709.81;1754190;82;21078;-62
2022/03/10 06:36:43;;;;;;;7.92;2.72;;;;;;;-4.89;58.43;101704.86;1754304;82;21093;-61
2022/03/10 06:39:13;;;;;;;8.13;3.52;;;;;;;-4.88;58.43;101707.07;1753997;82;21062;-61
2022/03/10 06:41:43;;;;;;;7.33;3.20;;;;;;;-4.90;58.64;101713.83;1749566;82;21051;-62
2022/03/10 06:44:14;;;;;;;8.33;3.45;;;;;;;-4.85;58.81;101715.83;1740200;82;21489;-62
2022/03/10 06:46:43;;;;;;;9.43;3.30;;;;;;;-4.79;58.46;101718.70;1740421;82;21073;-62
2022/03/10 06:49:13;;;;;;;7.70;3.37;;;;;;;-4.76;57.89;101717.23;1740191;82;21035;-62
2022/03/10 06:51:41;;;;;;;6.97;3.12;;;;;;;-4.80;57.25;101709.81;1740111;82;21098;-62
2022/03/10 06:54:11;;;;;;;7.25;2.72;;;;;;;-4.84;57.20;101713.55;1740237;81;21095;-62
2022/03/10 06:56:39;;;;;;;6.78;3.08;;;;;;;-4.83;57.18;101718.43;1740250;82;21066;-62
2022/03/10 06:59:09;;;;;;;6.70;3.10;;;;;;;-4.79;57.34;101710.67;1740248;82;21113;-62
2022/03/10 07:01:38;;;;;;;6.95;2.75;;;;;;;-4.73;57.16;101718.42;1740181;81;21058;-60
2022/03/10 07:04:08;;;;;;;9.05;2.90;;;;;;;-4.66;56.91;101723.91;1740214;82;21475;-62
2022/03/10 07:06:37;;;;;;;6.95;2.72;;;;;;;-4.63;55.97;101721.56;1740211;82;21076;-61
2022/03/10 07:09:08;;;;;;;9.03;2.95;;;;;;;-4.65;55.56;101716.75;1740255;82;21055;-62
2022/03/10 07:11:37;;;;;;;5.97;2.83;;;;;;;-4.64;55.50;101719.82;1740438;82;21039;-62
2022/03/10 07:14:07;;;;;;;8.23;3.37;;;;;;;-4.64;55.34;101722.50;1740183;81;21019;-63
2022/03/10 07:16:37;;;;;;;7.08;3.00;;;;;;;-4.64;55.34;101722.50;1740323;81;21082;-62
2022/03/10 07:19:09;;;;;;;8.58;2.87;;;;;;;-4.58;55.15;101715.53;1740519;82;21047;-62
2022/03/10 07:21:39;;;;;;;5.90;2.80;;;;;;;-4.51;55.09;101722.38;1740209;82;21079;-60
2022/03/10 07:24:10;;;;;;;7.97;2.77;;;;;;;-4.45;54.92;101722.09;1740179;82;21068;-62
2022/03/10 07:26:42;;;;;;;8.78;2.55;;;;;;;-4.43;54.72;101737.61;1740352;82;21043;-63
2022/03/10 07:29:11;;;;;;;9.85;2.90;;;;;;;-4.44;54.08;101723.84;1740186;82;21063;-62
2022/03/10 07:31:40;;;;;;;5.22;2.42;;;;;;;-4.41;53.89;101729.05;1740136;82;21046;-62
2022/03/10 07:34:10;;;;;;;6.58;2.72;;;;;;;-4.38;53.24;101724.89;1740197;82;21039;-61
2022/03/10 07:36:42;;;;;;;5.25;2.33;;;;;;;-4.36;53.17;101732.38;1739977;82;21071;-62
2022/03/10 07:39:11;;;;;;;6.90;2.27;;;;;;;-4.31;53.33;101721.47;1740157;82;21055;-62
2022/03/10 07:41:40;;;;;;;6.40;2.52;;;;;;;-4.29;52.96;101725.81;1740765;82;21540;-62
2022/03/10 07:44:11;;;;;;;5.03;2.50;;;;;;;-4.29;52.92;101729.83;1740432;82;21042;-62
2022/03/10 07:46:40;;;;;;;7.00;2.85;;;;;;;-4.30;52.87;101717.86;1740380;82;21071;-62
2022/03/10 07:49:09;;;;;;;5.62;2.55;;;;;;;-4.30;52.64;101727.22;1740116;82;21074;-61
2022/03/10 07:51:42;;;;;;;10.70;2.55;;;;;;;-4.26;51.74;101729.69;1740346;82;21063;-62
2022/03/10 07:54:11;;;;;;;4.58;1.80;;;;;;;-4.24;51.37;101744.33;1740201;82;21090;-62
2022/03/10 07:56:42;;;;;;;5.92;2.30;;;;;;;-4.27;49.77;101734.63;1740217;82;21043;-62
2022/03/10 07:59:14;;;;;;;5.90;2.20;;;;;;;-4.32;49.48;101721.94;1740297;82;21059;-62
2022/03/10 08:01:43;;;;;;;7.37;2.25;;;;;;;-4.28;49.61;101728.88;1740414;82;20995;-62
2022/03/10 08:04:14;;;;;;;4.95;1.90;;;;;;;-4.21;49.51;101726.33;1740163;82;21032;-61
2022/03/10 08:06:44;;;;;;;4.65;1.90;;;;;;;-4.12;48.39;101718.80;1740139;82;21089;-63
2022/03/10 08:09:13;;;;;;;5.08;2.35;;;;;;;-3.31;48.61;101721.13;1740285;82;21498;-63
2022/03/10 08:11:43;;;;;;;5.28;2.10;;;;;;;-3.31;48.61;101721.13;1740038;82;21051;-64
2022/03/10 08:14:13;;;;;;;4.72;2.27;;;;;;;-2.74;48.51;101724.48;1740434;81;21004;-64
2022/03/10 08:16:43;;;;;;;8.50;2.47;;;;;;;-2.13;45.96;101726.59;1740443;82;21513;-63
2022/03/10 08:19:12;;;;;;;7.25;2.27;;;;;;;-1.68;45.55;101717.83;1740274;82;21019;-62
2022/03/10 08:21:42;;;;;;;4.83;2.35;;;;;;;-1.24;43.09;101724.70;1740457;82;21067;-62
2022/03/10 08:24:13;;;;;;;7.53;2.20;;;;;;;-0.97;42.65;101726.24;1740172;82;21039;-62
2022/03/10 08:26:44;;;;;;;5.20;2.27;;;;;;;-0.68;41.40;101729.88;1740216;82;21012;-61
2022/03/10 08:29:15;;;;;;;5.92;2.50;;;;;;;-0.51;40.84;101706.86;1740666;81;21510;-62
2022/03/10 08:31:43;;;;;;;6.25;2.55;;;;;;;-0.47;40.58;101719.17;1740145;82;21039;-61
2022/03/10 08:34:13;;;;;;;5.12;1.85;;;;;;;-0.39;39.96;101723.59;1740392;82;21082;-61
2022/03/10 08:36:42;;;;;;;4.17;2.10;;;;;;;-0.28;39.99;101717.55;1740400;82;21071;-61
2022/03/10 08:39:13;;;;;;;4.40;2.22;;;;;;;-0.14;39.85;101704.55;1740368;81;21082;-62
2022/03/10 08:41:42;;;;;;;4.78;2.30;;;;;;;-0.03;41.83;101699.35;1740141;81;21075;-61
2022/03/10 08:44:12;;;;;;;8.78;2.58;;;;;;;0.21;40.87;101701.84;1741078;81;21038;-63
2022/03/10 08:46:42;;;;;;;4.87;2.17;;;;;;;0.21;40.91;101712.63;1741088;81;21062;-62
2022/03/10 08:49:11;;;;;;;8.03;2.70;;;;;;;0.15;40.15;101704.08;1741313;82;21022;-61
2022/03/10 08:51:42;;;;;;;5.08;2.00;;;;;;;0.03;41.73;101712.47;1740994;82;21038;-61
2022/03/10 08:54:12;;;;;;;4.22;2.05;;;;;;;-0.06;41.02;101717.06;1740948;81;21011;-63
2022/03/10 08:56:42;;;;;;;4.05;2.05;;;;;;;-0.25;40.49;101698.50;1741109;82;21062;-60
2022/03/10 08:59:11;;;;;;;4.50;2.00;;;;;;;-0.40;40.08;101710.23;1741190;81;21066;-61
2022/03/10 09:01:41;;;;;;;4.35;2.30;;;;;;;-0.57;41.67;101727.42;1741173;82;21050;-62
2022/03/10 09:04:11;;;;;;;4.78;2.22;;;;;;;-0.83;39.96;101707.45;1741075;81;20979;-61
2022/03/10 09:06:40;;;;;;;6.15;2.20;;;;;;;-1.06;40.57;101697.20;1741286;82;21019;-62
2022/03/10 09:09:10;;;;;;;5.00;1.80;;;;;;;-1.25;40.49;101718.94;1741152;81;21050;-62
2022/03/10 09:11:40;;;;;;;7.53;2.10;;;;;;;-1.44;38.77;101724.96;1741055;82;20991;-63
2022/03/10 09:14:10;;;;;;;4.53;1.70;;;;;;;-1.74;40.51;101716.83;1741093;82;21051;-61
2022/03/10 09:16:39;;;;;;;5.58;2.10;;;;;;;-1.89;40.04;101710.98;1740994;81;21010;-61
2022/03/10 09:19:09;;;;;;;5.65;2.10;;;;;;;-1.99;42.35;101707.91;1741225;82;20983;-62
2022/03/10 09:21:38;;;;;;;3.58;1.77;;;;;;;-2.00;41.40;101706.17;1741103;82;21430;-61
2022/03/10 09:24:08;;;;;;;4.40;1.80;;;;;;;-2.03;40.91;101711.23;1741181;82;21011;-62
2022/03/10 09:26:41;;;;;;;3.15;1.62;;;;;;;-2.05;41.38;101727.05;1741146;82;21532;-62
2022/03/10 09:29:11;;;;;;;5.70;1.80;;;;;;;-2.14;40.50;101707.41;1740977;82;21467;-62
2022/03/10 09:31:40;;;;;;;5.10;1.80;;;;;;;-2.18;40.15;101716.59;1741159;82;21523;-62
2022/03/10 09:34:10;;;;;;;3.22;1.47;;;;;;;-2.26;39.59;101721.91;1740964;82;21014;-61
2022/03/10 09:36:39;;;;;;;5.17;1.80;;;;;;;-2.32;39.41;101706.12;1741177;81;21525;-61
2022/03/10 09:39:09;;;;;;;3.52;1.55;;;;;;;-2.36;40.76;101706.38;1741013;82;21014;-63
2022/03/10 09:41:39;;;;;;;2.95;1.40;;;;;;;-2.38;39.23;101724.38;1740922;82;21043;-63
2022/03/10 09:44:13;;;;;;;3.70;1.65;;;;;;;-2.42;39.30;101728.18;1751945;82;21121;-61
2022/03/10 09:46:42;;;;;;;4.97;1.47;;;;;;;-2.46;38.43;101715.40;1754023;82;21118;-62
2022/03/10 09:49:11;;;;;;;2.92;1.47;;;;;;;-2.51;38.57;101722.83;1725422;82;21747;-62
2022/03/10 09:51:41;;;;;;;4.15;1.15;;;;;;;-2.52;39.99;101740.35;1753898;82;21074;-62
2022/03/10 09:54:10;;;;;;;5.37;2.22;;;;;;;-2.52;39.09;101730.48;1724924;82;21099;-61
2022/03/10 09:56:43;;;;;;;3.22;1.50;;;;;;;-2.57;38.92;101714.63;1754029;82;21494;-64
2022/03/10 09:59:12;;;;;;;5.00;1.42;;;;;;;-2.63;38.90;101718.95;1754123;82;21035;-62
2022/03/10 10:01:42;;;;;;;4.33;1.77;;;;;;;-2.65;40.07;101712.80;1753857;82;21479;-61
2022/03/10 10:04:14;;;;;;;3.47;1.60;;;;;;;-2.57;40.60;101696.33;1753873;82;21082;-62
2022/03/10 10:07:06;;;;;;;4.42;1.52;;;;;;;-2.50;40.40;101713.83;1753861;80;21071;-62
2022/03/10 10:09:46;;;;;;;2.95;1.35;;;;;;;-2.47;40.11;101693.54;1753863;82;21432;-63
2022/03/10 10:12:17;;;;;;;4.70;1.50;;;;;;;-2.45;40.00;101701.51;1753892;82;21058;-62
2022/03/10 10:15:09;;;;;;;4.62;1.72;;;;;;;-2.43;40.49;101695.11;1753888;82;21066;-62
2022/03/10 10:17:39;;;;;;;4.25;1.80;;;;;;;-2.41;39.45;101707.97;1753817;82;21062;-63
2022/03/10 10:20:12;;;;;;;2.98;1.57;;;;;;;-2.41;39.99;101691.00;1749808;82;21078;-63
2022/03/10 10:22:41;;;;;;;5.00;1.60;;;;;;;-2.37;39.87;101700.14;1754075;82;21110;-62
2022/03/10 10:25:11;;;;;;;3.72;1.30;;;;;;;-2.34;40.72;101701.80;1753836;82;21093;-60
2022/03/10 10:27:41;;;;;;;5.60;1.32;;;;;;;-2.30;39.48;101688.13;1753802;82;21031;-62
2022/03/10 10:30:12;;;;;;;3.37;1.57;;;;;;;-2.29;39.31;101690.33;1754189;82;21059;-62
2022/03/10 10:32:55;;;;;;;9.90;1.90;;;;;;;-2.39;38.15;101696.67;1753799;82;21521;-62
2022/03/10 10:35:22;;;;;;;3.98;1.45;;;;;;;-2.39;38.15;101696.67;1753920;80;21530;-60
2022/03/10 10:37:56;;;;;;;5.83;1.60;;;;;;;-2.43;39.10;101689.73;1753748;81;21086;-61
2022/03/10 10:40:33;;;;;;;6.03;1.50;;;;;;;-2.38;39.62;101707.80;1753917;82;20999;-61
2022/03/10 10:42:57;;;;;;;3.90;1.80;;;;;;;-2.39;37.10;101714.13;1749656;82;21071;-61
2022/03/10 10:45:36;;;;;;;6.35;1.45;;;;;;;-2.45;36.90;101698.34;1738245;82;21031;-62
2022/03/10 10:48:08;;;;;;;5.35;1.22;;;;;;;-2.46;37.46;101691.72;1738055;82;21483;-61
2022/03/10 10:50:47;;;;;;;4.22;1.60;;;;;;;-2.48;38.23;101689.12;1737999;82;21460;-62
2022/03/10 10:53:32;;;;;;;11.78;1.92;;;;;;;-2.43;36.56;101693.77;1738139;82;21071;-61
2022/03/10 10:56:04;;;;;;;3.70;1.32;;;;;;;-2.42;36.73;101694.16;1738157;81;21491;-62
2022/03/10 10:58:33;;;;;;;4.15;1.37;;;;;;;-2.43;37.13;101700.95;1738190;82;21033;-62
2022/03/10 11:01:03;;;;;;;21.60;2.45;;;;;;;-2.42;37.52;101687.45;1738146;82;21067;-62
2022/03/10 11:03:36;;;;;;;8.40;1.42;;;;;;;-2.41;36.93;101698.58;1693134;82;21019;-62
2022/03/10 11:06:04;;;;;;;2.77;1.47;;;;;;;-2.45;38.00;101691.64;1737922;82;21483;-63
2022/03/10 11:08:34;;;;;;;3.50;1.60;;;;;;;-2.44;38.21;101692.03;1737985;82;21016;-62
2022/03/10 11:11:03;;;;;;;2.80;1.70;;;;;;;-2.41;37.43;101694.55;1737944;82;21059;-63
2022/03/10 11:13:32;;;;;;;4.58;1.80;;;;;;;-2.37;37.79;101694.77;1717748;82;21031;-62
2022/03/10 11:16:06;;;;;;;4.80;1.40;;;;;;;-2.32;38.44;101681.97;1718056;82;21051;-63
2022/03/10 11:18:38;;;;;;;4.90;1.70;;;;;;;-2.26;38.52;101691.03;1718584;82;21039;-64
2022/03/10 11:21:50;;;;;;;9.68;1.75;;;;;;;-2.17;38.10;101683.42;1738082;82;21059;-61
2022/03/10 11:24:30;;;;;;;5.35;1.40;;;;;;;-2.12;36.78;101688.06;1738107;82;21459;-61
2022/03/10 11:27:08;;;;;;;20.90;2.90;;;;;;;-2.15;37.06;101680.17;1734277;82;21079;-61
2022/03/10 11:29:37;;;;;;;2.75;1.52;;;;;;;-2.13;37.32;101678.27;1738239;81;21035;-62
2022/03/10 11:32:10;;;;;;;6.45;1.72;;;;;;;-2.09;37.15;101681.17;1738130;82;21083;-63
2022/03/10 11:34:53;;;;;;;4.15;1.45;;;;;;;-2.07;37.10;101676.59;1738278;82;21087;-62
2022/03/10 11:37:50;;;;;;;6.50;1.60;;;;;;;-2.09;37.05;101668.61;1738312;81;21106;-62
2022/03/10 11:40:39;;;;;;;6.00;1.90;;;;;;;-2.09;37.00;101667.75;1738123;81;21071;-61
2022/03/10 11:43:12;;;;;;;11.48;2.02;;;;;;;-2.09;37.00;101671.77;1741110;81;21015;-62
2022/03/10 11:45:43;;;;;;;5.60;1.77;;;;;;;-2.07;36.66;101663.16;1754164;82;21158;-62
2022/03/10 11:48:32;;;;;;;5.83;1.30;;;;;;;-2.11;36.57;101669.66;1753882;82;21477;-63